sensor_id;sensor_type;location;lat;lon;timestamp;pressure;altitude;pressure_sealevel;temperature;humidity
68107;BME280;54892;47.488;19.026;2022-12-24T00:01:14;99421.09;;;4.86;100.00
68107;BME280;54892;47.488;19.026;2022-12-24T00:04:19;99420.38;;;4.91;100.00
68107;BME280;54892;47.488;19.026;2022-12-24T00:07:23;99435.25;;;4.91;100.00
68107;BME280;54892;47.488;19.026;2022-12-24T00:10:27;99425.16;;;4.94;100.00
68107;BME280;54892;47.488;19.026;2022-12-24T00:13:31;99428.87;;;4.98;100.00
68107;BME280;54892;47.488;19.026;2022-12-24T00:16:34;99417.41;;;4.99;100.00
68107;BME280;54892;47.488;19.026;2022-12-24T00:19:41;99418.66;;;4.97;100.00
68107;BME280;54892;47.488;19.026;2022-12-24T00:22:45;99419.47;;;4.97;100.00
68107;BME280;54892;47.488;19.026;2022-12-24T00:25:49;99421.53;;;4.95;100.00
68107;BME280;54892;47.488;19.026;2022-12-24T00:28:52;99410.34;;;5.00;100.00
68107;BME280;54892;47.488;19.026;2022-12-24T00:31:55;99411.84;;;4.96;100.00
68107;BME280;54892;47.488;19.026;2022-12-24T00:35:00;99419.38;;;4.92;100.00
68107;BME280;54892;47.488;19.026;2022-12-24T00:38:04;99420.72;;;4.95;100.00
68107;BME280;54892;47.488;19.026;2022-12-24T00:41:08;99433.78;;;4.95;100.00
68107;BME280;54892;47.488;19.026;2022-12-24T00:44:26;99431.97;;;4.95;100.00
68107;BME280;54892;47.488;19.026;2022-12-24T00:47:29;99455.84;;;4.87;100.00
68107;BME280;54892;47.488;19.026;2022-12-24T00:50:34;99476.09;;;4.92;100.00
68107;BME280;54892;47.488;19.026;2022-12-24T00:53:38;99478.25;;;4.95;100.00
68107;BME280;54892;47.488;19.026;2022-12-24T00:56:41;99457.94;;;5.14;100.00
68107;BME280;54892;47.488;19.026;2022-12-24T00:59:45;99449.78;;;5.10;100.00
68107;BME280;54892;47.488;19.026;2022-12-24T01:02:49;99450.91;;;5.14;100.00
68107;BME280;54892;47.488;19.026;2022-12-24T01:05:54;99446.13;;;5.11;100.00
68107;BME280;54892;47.488;19.026;2022-12-24T01:08:57;99442.88;;;5.04;100.00
68107;BME280;54892;47.488;19.026;2022-12-24T01:12:00;99422.72;;;5.05;100.00
68107;BME280;54892;47.488;19.026;2022-12-24T01:15:04;99409.19;;;5.08;100.00
68107;BME280;54892;47.488;19.026;2022-12-24T01:18:08;99401.81;;;5.05;100.00
68107;BME280;54892;47.488;19.026;2022-12-24T01:21:14;99397.31;;;5.17;100.00
68107;BME280;54892;47.488;19.026;2022-12-24T01:24:18;99383.13;;;5.13;100.00
68107;BME280;54892;47.488;19.026;2022-12-24T01:27:22;99384.81;;;5.19;100.00
68107;BME280;54892;47.488;19.026;2022-12-24T01:30:25;99377.41;;;5.16;100.00
68107;BME280;54892;47.488;19.026;2022-12-24T01:33:28;99371.09;;;5.12;100.00
68107;BME280;54892;47.488;19.026;2022-12-24T01:36:34;99363.69;;;5.09;100.00
68107;BME280;54892;47.488;19.026;2022-12-24T01:39:38;99367.81;;;5.05;100.00
68107;BME280;54892;47.488;19.026;2022-12-24T01:42:44;99351.50;;;5.14;100.00
68107;BME280;54892;47.488;19.026;2022-12-24T01:46:08;99366.34;;;4.97;100.00
68107;BME280;54892;47.488;19.026;2022-12-24T01:49:16;99346.75;;;5.11;100.00
68107;BME280;54892;47.488;19.026;2022-12-24T01:52:25;99335.97;;;5.08;100.00
68107;BME280;54892;47.488;19.026;2022-12-24T01:55:30;99358.00;;;5.12;100.00
68107;BME280;54892;47.488;19.026;2022-12-24T01:58:36;99367.28;;;4.91;100.00
68107;BME280;54892;47.488;19.026;2022-12-24T02:01:40;99373.00;;;5.16;100.00
68107;BME280;54892;47.488;19.026;2022-12-24T02:04:50;99365.75;;;5.07;100.00
68107;BME280;54892;47.488;19.026;2022-12-24T02:07:57;99356.00;;;5.02;100.00
68107;BME280;54892;47.488;19.026;2022-12-24T02:11:02;99361.56;;;5.06;100.00
68107;BME280;54892;47.488;19.026;2022-12-24T02:14:06;99354.88;;;4.98;100.00
68107;BME280;54892;47.488;19.026;2022-12-24T02:17:17;99356.50;;;4.87;100.00
68107;BME280;54892;47.488;19.026;2022-12-24T02:20:44;99360.94;;;4.86;100.00
68107;BME280;54892;47.488;19.026;2022-12-24T02:27:44;99385.38;;;5.21;100.00
68107;BME280;54892;47.488;19.026;2022-12-24T02:30:54;99422.47;;;5.18;100.00
68107;BME280;54892;47.488;19.026;2022-12-24T02:34:05;99412.94;;;5.41;100.00
68107;BME280;54892;47.488;19.026;2022-12-24T02:37:14;99381.56;;;5.75;100.00
68107;BME280;54892;47.488;19.026;2022-12-24T02:40:22;99386.38;;;5.83;100.00
68107;BME280;54892;47.488;19.026;2022-12-24T02:43:31;99381.38;;;5.99;100.00
68107;BME280;54892;47.488;19.026;2022-12-24T02:46:37;99376.06;;;5.93;100.00
68107;BME280;54892;47.488;19.026;2022-12-24T02:49:43;99371.31;;;5.90;100.00
68107;BME280;54892;47.488;19.026;2022-12-24T02:52:47;99379.78;;;5.63;100.00
68107;BME280;54892;47.488;19.026;2022-12-24T02:56:07;99384.63;;;5.55;100.00
68107;BME280;54892;47.488;19.026;2022-12-24T02:59:37;99380.97;;;5.39;100.00
68107;BME280;54892;47.488;19.026;2022-12-24T03:03:01;99381.38;;;5.47;100.00
68107;BME280;54892;47.488;19.026;2022-12-24T03:06:15;99390.47;;;5.28;100.00
68107;BME280;54892;47.488;19.026;2022-12-24T03:09:26;99391.69;;;5.37;100.00
68107;BME280;54892;47.488;19.026;2022-12-24T03:12:32;99405.59;;;5.26;100.00
68107;BME280;54892;47.488;19.026;2022-12-24T03:15:37;99418.91;;;5.24;100.00
68107;BME280;54892;47.488;19.026;2022-12-24T03:18:45;99428.81;;;5.22;100.00
68107;BME280;54892;47.488;19.026;2022-12-24T03:21:50;99422.88;;;5.27;100.00
68107;BME280;54892;47.488;19.026;2022-12-24T03:24:54;99418.62;;;5.38;100.00
68107;BME280;54892;47.488;19.026;2022-12-24T03:28:01;99400.00;;;5.34;100.00
68107;BME280;54892;47.488;19.026;2022-12-24T03:31:07;99397.22;;;5.41;100.00
68107;BME280;54892;47.488;19.026;2022-12-24T03:34:13;99386.31;;;5.44;100.00
68107;BME280;54892;47.488;19.026;2022-12-24T03:37:17;99383.41;;;5.28;100.00
68107;BME280;54892;47.488;19.026;2022-12-24T03:40:21;99384.09;;;5.53;100.00
68107;BME280;54892;47.488;19.026;2022-12-24T03:43:25;99396.66;;;5.39;100.00
68107;BME280;54892;47.488;19.026;2022-12-24T03:46:28;99393.91;;;5.45;100.00
68107;BME280;54892;47.488;19.026;2022-12-24T03:49:33;99388.56;;;5.40;100.00
68107;BME280;54892;47.488;19.026;2022-12-24T03:52:37;99402.38;;;5.36;100.00
68107;BME280;54892;47.488;19.026;2022-12-24T03:55:40;99415.00;;;5.39;100.00
68107;BME280;54892;47.488;19.026;2022-12-24T03:58:44;99415.50;;;5.24;100.00
68107;BME280;54892;47.488;19.026;2022-12-24T04:01:48;99411.78;;;5.20;100.00
68107;BME280;54892;47.488;19.026;2022-12-24T04:04:52;99423.88;;;5.09;100.00
68107;BME280;54892;47.488;19.026;2022-12-24T04:07:56;99402.84;;;5.03;100.00
68107;BME280;54892;47.488;19.026;2022-12-24T04:11:00;99404.88;;;5.01;100.00
68107;BME280;54892;47.488;19.026;2022-12-24T04:14:07;99415.44;;;5.07;100.00
68107;BME280;54892;47.488;19.026;2022-12-24T04:17:10;99410.09;;;5.13;100.00
68107;BME280;54892;47.488;19.026;2022-12-24T04:20:16;99423.16;;;5.13;100.00
68107;BME280;54892;47.488;19.026;2022-12-24T04:23:19;99415.44;;;5.07;100.00
68107;BME280;54892;47.488;19.026;2022-12-24T04:26:22;99429.06;;;5.21;100.00
68107;BME280;54892;47.488;19.026;2022-12-24T04:29:26;99420.78;;;5.12;100.00
68107;BME280;54892;47.488;19.026;2022-12-24T04:32:29;99425.62;;;5.20;100.00
68107;BME280;54892;47.488;19.026;2022-12-24T04:35:38;99427.97;;;5.33;100.00
68107;BME280;54892;47.488;19.026;2022-12-24T04:38:41;99430.22;;;5.42;100.00
68107;BME280;54892;47.488;19.026;2022-12-24T04:41:45;99419.56;;;5.77;100.00
68107;BME280;54892;47.488;19.026;2022-12-24T04:44:49;99412.47;;;6.07;100.00
68107;BME280;54892;47.488;19.026;2022-12-24T04:47:53;99418.06;;;5.99;100.00
68107;BME280;54892;47.488;19.026;2022-12-24T04:50:59;99420.84;;;6.09;100.00
68107;BME280;54892;47.488;19.026;2022-12-24T04:54:03;99419.56;;;6.29;100.00
68107;BME280;54892;47.488;19.026;2022-12-24T04:57:07;99411.53;;;6.35;100.00
68107;BME280;54892;47.488;19.026;2022-12-24T05:00:12;99416.59;;;6.42;100.00
68107;BME280;54892;47.488;19.026;2022-12-24T05:03:15;99427.47;;;6.51;100.00
68107;BME280;54892;47.488;19.026;2022-12-24T05:06:22;99437.41;;;6.71;100.00
68107;BME280;54892;47.488;19.026;2022-12-24T05:09:26;99434.41;;;6.79;100.00
68107;BME280;54892;47.488;19.026;2022-12-24T05:12:30;99431.50;;;7.03;100.00
68107;BME280;54892;47.488;19.026;2022-12-24T05:15:34;99443.22;;;7.18;100.00
68107;BME280;54892;47.488;19.026;2022-12-24T05:18:37;99436.59;;;7.37;100.00
68107;BME280;54892;47.488;19.026;2022-12-24T05:21:42;99438.47;;;7.14;100.00
68107;BME280;54892;47.488;19.026;2022-12-24T05:25:07;99436.72;;;7.25;100.00
68107;BME280;54892;47.488;19.026;2022-12-24T05:28:28;99445.06;;;6.95;100.00
68107;BME280;54892;47.488;19.026;2022-12-24T05:31:33;99446.09;;;6.94;100.00
68107;BME280;54892;47.488;19.026;2022-12-24T05:34:37;99452.94;;;6.95;100.00
68107;BME280;54892;47.488;19.026;2022-12-24T05:37:42;99460.81;;;6.95;100.00
68107;BME280;54892;47.488;19.026;2022-12-24T05:40:45;99459.28;;;6.99;100.00
68107;BME280;54892;47.488;19.026;2022-12-24T05:43:49;99461.38;;;6.97;100.00
68107;BME280;54892;47.488;19.026;2022-12-24T05:46:52;99461.41;;;7.02;100.00
68107;BME280;54892;47.488;19.026;2022-12-24T05:49:56;99469.47;;;6.95;100.00
68107;BME280;54892;47.488;19.026;2022-12-24T05:53:01;99462.63;;;6.94;100.00
68107;BME280;54892;47.488;19.026;2022-12-24T05:56:05;99463.81;;;7.04;100.00
68107;BME280;54892;47.488;19.026;2022-12-24T05:59:09;99459.97;;;7.11;100.00
68107;BME280;54892;47.488;19.026;2022-12-24T06:02:13;99468.78;;;7.27;100.00
68107;BME280;54892;47.488;19.026;2022-12-24T06:05:16;99460.41;;;7.30;100.00
68107;BME280;54892;47.488;19.026;2022-12-24T06:08:21;99463.12;;;7.36;100.00
68107;BME280;54892;47.488;19.026;2022-12-24T06:11:26;99462.91;;;7.42;100.00
68107;BME280;54892;47.488;19.026;2022-12-24T06:14:30;99450.56;;;7.43;100.00
68107;BME280;54892;47.488;19.026;2022-12-24T06:17:33;99465.00;;;7.68;100.00
68107;BME280;54892;47.488;19.026;2022-12-24T06:20:38;99456.31;;;7.67;100.00
68107;BME280;54892;47.488;19.026;2022-12-24T06:23:43;99456.47;;;7.55;100.00
68107;BME280;54892;47.488;19.026;2022-12-24T06:26:47;99475.00;;;7.43;100.00
68107;BME280;54892;47.488;19.026;2022-12-24T06:29:50;99474.00;;;7.50;100.00
68107;BME280;54892;47.488;19.026;2022-12-24T06:32:54;99482.41;;;7.46;100.00
68107;BME280;54892;47.488;19.026;2022-12-24T06:35:58;99480.09;;;7.55;100.00
68107;BME280;54892;47.488;19.026;2022-12-24T06:39:03;99481.00;;;7.66;100.00
68107;BME280;54892;47.488;19.026;2022-12-24T06:42:07;99481.41;;;7.80;99.69
68107;BME280;54892;47.488;19.026;2022-12-24T06:45:10;99490.06;;;7.81;99.17
68107;BME280;54892;47.488;19.026;2022-12-24T06:48:14;99503.44;;;7.79;98.36
68107;BME280;54892;47.488;19.026;2022-12-24T06:51:18;99498.53;;;7.60;99.00
68107;BME280;54892;47.488;19.026;2022-12-24T06:54:23;99513.34;;;7.44;99.96
68107;BME280;54892;47.488;19.026;2022-12-24T06:57:27;99514.69;;;7.47;100.00
68107;BME280;54892;47.488;19.026;2022-12-24T07:00:32;99514.97;;;7.51;99.98
68107;BME280;54892;47.488;19.026;2022-12-24T07:03:36;99520.09;;;7.62;99.47
68107;BME280;54892;47.488;19.026;2022-12-24T07:06:40;99517.22;;;7.64;99.39
68107;BME280;54892;47.488;19.026;2022-12-24T07:09:46;99515.63;;;7.63;99.21
68107;BME280;54892;47.488;19.026;2022-12-24T07:12:49;99533.28;;;7.68;99.02
68107;BME280;54892;47.488;19.026;2022-12-24T07:15:56;99538.84;;;7.71;98.89
68107;BME280;54892;47.488;19.026;2022-12-24T07:18:59;99528.69;;;7.80;98.26
68107;BME280;54892;47.488;19.026;2022-12-24T07:22:04;99530.91;;;7.93;97.78
68107;BME280;54892;47.488;19.026;2022-12-24T07:25:12;99528.00;;;7.90;97.59
68107;BME280;54892;47.488;19.026;2022-12-24T07:28:16;99531.94;;;7.92;97.81
68107;BME280;54892;47.488;19.026;2022-12-24T07:31:23;99534.72;;;8.08;97.31
68107;BME280;54892;47.488;19.026;2022-12-24T07:34:26;99540.16;;;8.29;95.77
68107;BME280;54892;47.488;19.026;2022-12-24T07:37:29;99544.37;;;8.30;95.08
68107;BME280;54892;47.488;19.026;2022-12-24T07:40:35;99549.84;;;8.23;94.11
68107;BME280;54892;47.488;19.026;2022-12-24T07:43:39;99557.06;;;8.11;94.80
68107;BME280;54892;47.488;19.026;2022-12-24T07:46:42;99561.56;;;8.10;94.72
68107;BME280;54892;47.488;19.026;2022-12-24T07:49:46;99562.59;;;8.09;94.19
68107;BME280;54892;47.488;19.026;2022-12-24T07:52:51;99573.22;;;7.92;94.58
68107;BME280;54892;47.488;19.026;2022-12-24T07:55:56;99577.84;;;7.85;95.64
68107;BME280;54892;47.488;19.026;2022-12-24T07:59:00;99583.13;;;7.85;95.73
68107;BME280;54892;47.488;19.026;2022-12-24T08:02:04;99590.69;;;7.81;96.77
68107;BME280;54892;47.488;19.026;2022-12-24T08:05:10;99586.84;;;7.89;96.70
68107;BME280;54892;47.488;19.026;2022-12-24T08:08:14;99585.00;;;7.89;96.95
68107;BME280;54892;47.488;19.026;2022-12-24T08:11:19;99592.53;;;7.81;97.71
68107;BME280;54892;47.488;19.026;2022-12-24T08:14:23;99605.66;;;7.81;98.04
68107;BME280;54892;47.488;19.026;2022-12-24T08:17:27;99599.44;;;7.87;98.11
68107;BME280;54892;47.488;19.026;2022-12-24T08:20:36;99615.84;;;7.99;97.69
68107;BME280;54892;47.488;19.026;2022-12-24T08:23:40;99629.25;;;7.98;97.07
68107;BME280;54892;47.488;19.026;2022-12-24T08:26:46;99644.13;;;8.14;96.53
68107;BME280;54892;47.488;19.026;2022-12-24T08:29:49;99642.50;;;8.35;95.43
68107;BME280;54892;47.488;19.026;2022-12-24T08:32:53;99651.63;;;8.28;96.06
68107;BME280;54892;47.488;19.026;2022-12-24T08:35:57;99656.06;;;8.27;96.35
68107;BME280;54892;47.488;19.026;2022-12-24T08:39:00;99668.75;;;8.58;94.39
68107;BME280;54892;47.488;19.026;2022-12-24T08:42:05;99670.63;;;8.62;94.41
68107;BME280;54892;47.488;19.026;2022-12-24T08:45:11;99685.59;;;8.57;94.59
68107;BME280;54892;47.488;19.026;2022-12-24T08:48:14;99687.87;;;8.48;95.92
68107;BME280;54892;47.488;19.026;2022-12-24T08:51:18;99698.31;;;8.43;96.66
68107;BME280;54892;47.488;19.026;2022-12-24T08:54:22;99698.81;;;8.67;95.34
68107;BME280;54892;47.488;19.026;2022-12-24T08:57:27;99701.16;;;8.63;95.72
68107;BME280;54892;47.488;19.026;2022-12-24T09:00:31;99708.06;;;8.70;95.98
68107;BME280;54892;47.488;19.026;2022-12-24T09:03:35;99696.44;;;8.93;94.70
68107;BME280;54892;47.488;19.026;2022-12-24T09:06:38;99706.97;;;8.93;95.06
68107;BME280;54892;47.488;19.026;2022-12-24T09:09:42;99698.31;;;8.97;94.93
68107;BME280;54892;47.488;19.026;2022-12-24T09:12:47;99697.28;;;9.04;94.41
68107;BME280;54892;47.488;19.026;2022-12-24T09:15:53;99700.28;;;9.18;93.56
68107;BME280;54892;47.488;19.026;2022-12-24T09:18:56;99706.38;;;9.23;92.91
68107;BME280;54892;47.488;19.026;2022-12-24T09:22:00;99713.28;;;9.35;92.05
68107;BME280;54892;47.488;19.026;2022-12-24T09:25:04;99727.22;;;9.30;91.71
68107;BME280;54892;47.488;19.026;2022-12-24T09:28:10;99727.50;;;9.28;91.50
68107;BME280;54892;47.488;19.026;2022-12-24T09:31:13;99727.22;;;9.30;90.90
68107;BME280;54892;47.488;19.026;2022-12-24T09:34:17;99734.94;;;9.42;90.37
68107;BME280;54892;47.488;19.026;2022-12-24T09:37:21;99733.91;;;9.43;90.26
68107;BME280;54892;47.488;19.026;2022-12-24T09:40:28;99739.47;;;9.47;90.52
68107;BME280;54892;47.488;19.026;2022-12-24T09:43:37;99747.63;;;9.45;90.55
68107;BME280;54892;47.488;19.026;2022-12-24T09:46:42;99743.13;;;9.45;90.62
68107;BME280;54892;47.488;19.026;2022-12-24T09:49:50;99741.91;;;9.58;89.57
68107;BME280;54892;47.488;19.026;2022-12-24T09:52:57;99747.22;;;9.64;89.27
68107;BME280;54892;47.488;19.026;2022-12-24T09:56:05;99746.75;;;9.77;87.73
68107;BME280;54892;47.488;19.026;2022-12-24T09:59:16;99738.56;;;9.73;88.24
68107;BME280;54892;47.488;19.026;2022-12-24T10:02:20;99748.56;;;9.71;87.99
68107;BME280;54892;47.488;19.026;2022-12-24T10:05:32;99748.63;;;9.82;87.29
68107;BME280;54892;47.488;19.026;2022-12-24T10:08:48;99757.59;;;9.81;86.99
68107;BME280;54892;47.488;19.026;2022-12-24T10:12:01;99766.88;;;9.94;86.40
68107;BME280;54892;47.488;19.026;2022-12-24T10:15:26;99757.41;;;10.03;85.17
68107;BME280;54892;47.488;19.026;2022-12-24T10:18:37;99764.59;;;10.13;84.57
68107;BME280;54892;47.488;19.026;2022-12-24T10:21:57;99758.28;;;10.19;83.71
68107;BME280;54892;47.488;19.026;2022-12-24T10:25:12;99771.47;;;10.24;83.84
68107;BME280;54892;47.488;19.026;2022-12-24T10:28:18;99759.88;;;10.25;83.98
68107;BME280;54892;47.488;19.026;2022-12-24T10:31:31;99771.25;;;10.26;83.97
68107;BME280;54892;47.488;19.026;2022-12-24T10:34:40;99770.47;;;10.30;83.33
68107;BME280;54892;47.488;19.026;2022-12-24T10:37:46;99778.91;;;10.32;83.37
68107;BME280;54892;47.488;19.026;2022-12-24T10:40:52;99771.00;;;10.38;83.52
68107;BME280;54892;47.488;19.026;2022-12-24T10:43:57;99777.41;;;10.47;82.19
68107;BME280;54892;47.488;19.026;2022-12-24T10:47:05;99782.97;;;10.56;81.38
68107;BME280;54892;47.488;19.026;2022-12-24T10:50:14;99779.78;;;10.54;81.37
68107;BME280;54892;47.488;19.026;2022-12-24T10:53:24;99784.03;;;10.60;81.33
68107;BME280;54892;47.488;19.026;2022-12-24T10:56:30;99786.16;;;10.58;81.18
68107;BME280;54892;47.488;19.026;2022-12-24T10:59:41;99784.03;;;10.55;81.42
68107;BME280;54892;47.488;19.026;2022-12-24T11:02:47;99791.66;;;10.56;81.52
68107;BME280;54892;47.488;19.026;2022-12-24T11:06:05;99791.16;;;10.59;81.70
68107;BME280;54892;47.488;19.026;2022-12-24T11:09:19;99794.06;;;10.63;81.35
68107;BME280;54892;47.488;19.026;2022-12-24T11:12:25;99795.69;;;10.74;79.99
68107;BME280;54892;47.488;19.026;2022-12-24T11:15:31;99791.19;;;10.85;79.64
68107;BME280;54892;47.488;19.026;2022-12-24T11:18:43;99800.19;;;10.84;79.81
68107;BME280;54892;47.488;19.026;2022-12-24T11:21:58;99815.00;;;10.95;76.18
68107;BME280;54892;47.488;19.026;2022-12-24T11:25:06;99816.56;;;11.02;76.07
68107;BME280;54892;47.488;19.026;2022-12-24T11:28:22;99820.81;;;11.18;72.81
68107;BME280;54892;47.488;19.026;2022-12-24T11:31:25;99821.62;;;11.19;72.40
68107;BME280;54892;47.488;19.026;2022-12-24T11:34:31;99822.41;;;11.19;70.11
68107;BME280;54892;47.488;19.026;2022-12-24T11:37:36;99819.25;;;11.27;69.04
68107;BME280;54892;47.488;19.026;2022-12-24T11:40:42;99824.81;;;11.31;68.48
68107;BME280;54892;47.488;19.026;2022-12-24T11:43:49;99823.47;;;11.34;66.40
68107;BME280;54892;47.488;19.026;2022-12-24T11:46:55;99815.53;;;11.34;68.28
68107;BME280;54892;47.488;19.026;2022-12-24T11:50:21;99829.28;;;11.31;68.99
68107;BME280;54892;47.488;19.026;2022-12-24T11:53:30;99818.97;;;11.24;68.97
68107;BME280;54892;47.488;19.026;2022-12-24T11:56:42;99814.78;;;11.33;68.70
68107;BME280;54892;47.488;19.026;2022-12-24T11:59:47;99833.25;;;11.33;68.07
68107;BME280;54892;47.488;19.026;2022-12-24T12:02:54;99820.28;;;11.32;68.73
68107;BME280;54892;47.488;19.026;2022-12-24T12:06:03;99821.09;;;11.27;69.08
68107;BME280;54892;47.488;19.026;2022-12-24T12:09:12;99815.81;;;11.37;68.48
68107;BME280;54892;47.488;19.026;2022-12-24T12:12:18;99831.41;;;11.34;69.28
68107;BME280;54892;47.488;19.026;2022-12-24T12:15:25;99830.09;;;11.31;69.29
68107;BME280;54892;47.488;19.026;2022-12-24T12:18:34;99837.47;;;11.39;67.88
68107;BME280;54892;47.488;19.026;2022-12-24T12:21:42;99826.13;;;11.39;66.81
68107;BME280;54892;47.488;19.026;2022-12-24T12:24:51;99842.78;;;11.45;67.05
68107;BME280;54892;47.488;19.026;2022-12-24T12:27:59;99832.72;;;11.47;66.27
68107;BME280;54892;47.488;19.026;2022-12-24T12:31:09;99831.41;;;11.49;65.39
68107;BME280;54892;47.488;19.026;2022-12-24T12:34:19;99836.16;;;11.57;65.05
68107;BME280;54892;47.488;19.026;2022-12-24T12:37:30;99823.22;;;11.46;66.58
68107;BME280;54892;47.488;19.026;2022-12-24T12:40:47;99833.78;;;11.51;66.92
68107;BME280;54892;47.488;19.026;2022-12-24T12:44:08;99848.03;;;11.39;67.74
68107;BME280;54892;47.488;19.026;2022-12-24T12:47:37;99852.28;;;11.40;66.89
68107;BME280;54892;47.488;19.026;2022-12-24T12:50:48;99846.22;;;11.55;65.87
68107;BME280;54892;47.488;19.026;2022-12-24T12:54:14;99851.50;;;11.40;66.47
68107;BME280;54892;47.488;19.026;2022-12-24T12:57:25;99852.81;;;11.32;67.09
68107;BME280;54892;47.488;19.026;2022-12-24T13:00:37;99868.94;;;11.25;66.91
68107;BME280;54892;47.488;19.026;2022-12-24T13:04:03;99855.69;;;11.20;66.75
68107;BME280;54892;47.488;19.026;2022-12-24T13:07:20;99864.41;;;11.26;66.34
68107;BME280;54892;47.488;19.026;2022-12-24T13:10:46;99870.78;;;11.30;65.50
68107;BME280;54892;47.488;19.026;2022-12-24T13:14:06;99873.91;;;11.22;66.21
68107;BME280;54892;47.488;19.026;2022-12-24T13:17:32;99880.25;;;11.16;66.39
68107;BME280;54892;47.488;19.026;2022-12-24T13:20:45;99887.13;;;11.11;66.72
68107;BME280;54892;47.488;19.026;2022-12-24T13:24:04;99892.13;;;11.08;66.72
68107;BME280;54892;47.488;19.026;2022-12-24T13:27:18;99891.59;;;11.06;67.59
68107;BME280;54892;47.488;19.026;2022-12-24T13:30:34;99890.25;;;10.98;67.99
68107;BME280;54892;47.488;19.026;2022-12-24T13:33:47;99891.81;;;10.89;68.74
68107;BME280;54892;47.488;19.026;2022-12-24T13:37:04;99894.47;;;10.89;68.86
68107;BME280;54892;47.488;19.026;2022-12-24T13:40:15;99881.78;;;10.86;68.94
68107;BME280;54892;47.488;19.026;2022-12-24T13:44:00;99894.78;;;11.08;67.30
68107;BME280;54892;47.488;19.026;2022-12-24T13:47:16;99907.47;;;11.11;66.53
68107;BME280;54892;47.488;19.026;2022-12-24T13:50:36;99911.94;;;11.05;67.29
68107;BME280;54892;47.488;19.026;2022-12-24T13:53:42;99908.19;;;10.91;67.66
68107;BME280;54892;47.488;19.026;2022-12-24T13:56:47;99921.38;;;10.91;67.86
68107;BME280;54892;47.488;19.026;2022-12-24T13:59:56;99920.59;;;10.90;68.01
68107;BME280;54892;47.488;19.026;2022-12-24T14:03:05;99928.28;;;10.97;67.88
68107;BME280;54892;47.488;19.026;2022-12-24T14:06:11;99921.94;;;10.93;67.96
68107;BME280;54892;47.488;19.026;2022-12-24T14:09:23;99929.03;;;10.82;68.50
68107;BME280;54892;47.488;19.026;2022-12-24T14:12:47;99932.72;;;10.81;68.50
68107;BME280;54892;47.488;19.026;2022-12-24T14:16:07;99941.41;;;10.76;68.91
68107;BME280;54892;47.488;19.026;2022-12-24T14:19:14;99944.56;;;10.78;68.94
68107;BME280;54892;47.488;19.026;2022-12-24T14:22:25;99946.44;;;10.83;68.92
68107;BME280;54892;47.488;19.026;2022-12-24T14:25:30;99941.63;;;10.70;70.08
68107;BME280;54892;47.488;19.026;2022-12-24T14:28:38;99941.63;;;10.70;70.08
68107;BME280;54892;47.488;19.026;2022-12-24T14:31:51;99949.78;;;10.63;70.37
68107;BME280;54892;47.488;19.026;2022-12-24T14:35:05;99951.88;;;10.56;70.95
68107;BME280;54892;47.488;19.026;2022-12-24T14:38:14;99966.12;;;10.55;71.16
68107;BME280;54892;47.488;19.026;2022-12-24T14:41:34;99977.44;;;10.55;71.21
68107;BME280;54892;47.488;19.026;2022-12-24T14:44:46;99981.44;;;10.58;70.93
68107;BME280;54892;47.488;19.026;2022-12-24T14:47:58;99994.91;;;10.61;70.99
68107;BME280;54892;47.488;19.026;2022-12-24T14:51:12;99997.34;;;10.68;70.84
68107;BME280;54892;47.488;19.026;2022-12-24T14:54:33;99992.50;;;10.55;70.42
68107;BME280;54892;47.488;19.026;2022-12-24T14:57:37;100000.44;;;10.55;70.99
68107;BME280;54892;47.488;19.026;2022-12-24T15:00:41;100011.44;;;10.46;70.96
68107;BME280;54892;47.488;19.026;2022-12-24T15:03:58;100003.13;;;10.65;69.52
68107;BME280;54892;47.488;19.026;2022-12-24T15:07:02;100008.44;;;10.75;68.58
68107;BME280;54892;47.488;19.026;2022-12-24T15:10:28;100011.31;;;10.63;68.88
68107;BME280;54892;47.488;19.026;2022-12-24T15:13:35;100019.31;;;10.79;68.54
68107;BME280;54892;47.488;19.026;2022-12-24T15:16:39;100018.41;;;10.63;68.79
68107;BME280;54892;47.488;19.026;2022-12-24T15:19:46;100025.22;;;10.54;69.60
68107;BME280;54892;47.488;19.026;2022-12-24T15:22:53;100022.53;;;10.48;70.40
68107;BME280;54892;47.488;19.026;2022-12-24T15:26:23;100044.69;;;10.42;70.84
68107;BME280;54892;47.488;19.026;2022-12-24T15:29:29;100046.69;;;10.35;71.42
68107;BME280;54892;47.488;19.026;2022-12-24T15:32:34;100039.28;;;10.32;72.12
68107;BME280;54892;47.488;19.026;2022-12-24T15:35:50;100042.38;;;10.24;72.04
68107;BME280;54892;47.488;19.026;2022-12-24T15:38:59;100052.69;;;10.25;72.50
68107;BME280;54892;47.488;19.026;2022-12-24T15:42:04;100053.59;;;10.09;73.09
68107;BME280;54892;47.488;19.026;2022-12-24T15:45:21;100058.28;;;10.01;73.05
68107;BME280;54892;47.488;19.026;2022-12-24T15:48:30;100065.16;;;10.02;72.68
68107;BME280;54892;47.488;19.026;2022-12-24T15:51:36;100056.91;;;9.99;72.19
68107;BME280;54892;47.488;19.026;2022-12-24T15:54:42;100057.97;;;9.98;71.89
68107;BME280;54892;47.488;19.026;2022-12-24T15:57:46;100067.53;;;10.04;71.42
68107;BME280;54892;47.488;19.026;2022-12-24T16:04:22;100073.06;;;10.02;71.24
68107;BME280;54892;47.488;19.026;2022-12-24T16:07:27;100068.50;;;9.98;71.66
68107;BME280;54892;47.488;19.026;2022-12-24T16:11:04;100080.06;;;9.92;71.56
68107;BME280;54892;47.488;19.026;2022-12-24T16:14:13;100076.34;;;9.87;71.98
68107;BME280;54892;47.488;19.026;2022-12-24T16:17:23;100077.94;;;9.88;71.81
68107;BME280;54892;47.488;19.026;2022-12-24T16:20:27;100079.72;;;9.83;72.00
68107;BME280;54892;47.488;19.026;2022-12-24T16:23:37;100083.25;;;9.94;71.36
68107;BME280;54892;47.488;19.026;2022-12-24T16:26:41;100075.75;;;9.80;72.21
68107;BME280;54892;47.488;19.026;2022-12-24T16:29:45;100071.19;;;9.75;72.46
68107;BME280;54892;47.488;19.026;2022-12-24T16:32:49;100069.84;;;9.73;72.81